Time;durP1;ratioP1;P1;durP2;ratioP2;P2;SDS_P1;SDS_P2;PMS_P1;PMS_P2;Temp;Humidity;BMP_temperature;BMP_pressure;BME280_temperature;BME280_humidity;BME280_pressure;Samples;Min_cycle;Max_cycle;Signal;HPM_P1;HPM_P2
2022/03/15 00:02:08;;;;;;;15.98;8.52;;;12.60;99.90;;;;;;5044249;28;20032;-67
2022/03/15 00:04:34;;;;;;;13.38;8.63;;;12.60;99.90;;;;;;5040997;28;20029;-67
2022/03/15 00:07:00;;;;;;;15.20;9.48;;;12.60;99.90;;;;;;5044104;28;20044;-67
2022/03/15 00:09:26;;;;;;;16.10;9.75;;;12.60;99.90;;;;;;5048895;28;20032;-67
2022/03/15 00:11:54;;;;;;;15.48;10.52;;;12.50;99.90;;;;;;5038304;28;20028;-66
2022/03/15 00:14:20;;;;;;;15.68;10.13;;;12.50;99.90;;;;;;5042518;28;20056;-67
2022/03/15 00:16:45;;;;;;;19.55;10.68;;;12.50;99.90;;;;;;5044279;28;20036;-67
2022/03/15 00:19:12;;;;;;;16.00;10.50;;;12.40;99.90;;;;;;5044445;28;20468;-68
2022/03/15 00:21:38;;;;;;;17.10;11.00;;;12.40;99.90;;;;;;5026697;28;20497;-66
2022/03/15 00:24:07;;;;;;;17.13;10.38;;;12.40;99.90;;;;;;5043286;28;20036;-67
2022/03/15 00:26:35;;;;;;;20.13;10.63;;;12.40;99.90;;;;;;5041019;28;20029;-67
2022/03/15 00:29:01;;;;;;;19.00;11.50;;;12.50;99.90;;;;;;5036979;28;20029;-67
2022/03/15 00:31:27;;;;;;;15.95;10.70;;;12.50;99.90;;;;;;5046627;28;20105;-67
2022/03/15 00:33:52;;;;;;;18.33;10.95;;;12.50;99.90;;;;;;5040304;28;20492;-67
2022/03/15 00:36:18;;;;;;;17.30;10.52;;;12.40;99.90;;;;;;5037270;28;20033;-68
2022/03/15 00:38:44;;;;;;;19.15;11.35;;;12.40;99.90;;;;;;5043216;28;20117;-67
2022/03/15 00:41:10;;;;;;;18.73;11.48;;;12.40;99.90;;;;;;5034748;28;20029;-68
2022/03/15 00:43:36;;;;;;;16.70;10.88;;;12.40;99.90;;;;;;5036573;28;20025;-67
2022/03/15 00:46:02;;;;;;;19.50;12.32;;;12.40;99.90;;;;;;5033671;28;20041;-68
2022/03/15 00:48:27;;;;;;;18.27;11.70;;;12.40;99.90;;;;;;5038735;28;20045;-68
2022/03/15 00:50:54;;;;;;;17.33;11.90;;;12.30;99.90;;;;;;5037685;28;20033;-68
2022/03/15 00:53:20;;;;;;;17.52;12.38;;;12.30;99.90;;;;;;5042554;28;20420;-68
2022/03/15 00:55:46;;;;;;;17.77;10.55;;;12.30;99.90;;;;;;5041976;28;20028;-67
2022/03/15 00:58:12;;;;;;;18.27;10.98;;;12.20;99.90;;;;;;5042770;28;20497;-67
2022/03/15 01:00:38;;;;;;;17.40;12.07;;;12.20;99.90;;;;;;5041970;28;20070;-67
2022/03/15 01:03:04;;;;;;;19.80;12.32;;;12.20;99.90;;;;;;5041665;28;20060;-67
2022/03/15 01:05:30;;;;;;;19.23;12.63;;;12.20;99.90;;;;;;5047376;28;20481;-67
2022/03/15 01:07:56;;;;;;;16.58;11.70;;;12.10;99.90;;;;;;5051483;28;20048;-67
2022/03/15 01:10:22;;;;;;;20.40;11.50;;;12.20;99.90;;;;;;5050234;28;20037;-67
2022/03/15 01:12:48;;;;;;;21.73;13.20;;;12.10;99.90;;;;;;5047765;28;20056;-67
2022/03/15 01:15:14;;;;;;;22.08;13.95;;;12.10;99.90;;;;;;5052677;28;20036;-67
2022/03/15 01:17:42;;;;;;;25.13;14.73;;;12.10;99.90;;;;;;5052136;28;20025;-67
2022/03/15 01:20:09;;;;;;;21.83;13.63;;;12.00;99.90;;;;;;5049651;28;20024;-67
2022/03/15 01:22:35;;;;;;;21.55;13.18;;;12.00;99.90;;;;;;5046954;28;20046;-67
2022/03/15 01:25:01;;;;;;;25.85;13.32;;;11.90;99.90;;;;;;5053190;28;20029;-67
2022/03/15 01:27:27;;;;;;;22.05;12.85;;;11.90;99.90;;;;;;5048067;28;20098;-67
2022/03/15 01:29:53;;;;;;;21.13;12.80;;;11.80;99.90;;;;;;5052694;28;20028;-67
2022/03/15 01:32:20;;;;;;;20.20;12.38;;;11.80;99.90;;;;;;5052280;28;20064;-67
2022/03/15 01:34:46;;;;;;;16.83;11.43;;;11.80;99.90;;;;;;5050100;28;20025;-67
2022/03/15 01:37:11;;;;;;;18.10;11.75;;;11.70;99.90;;;;;;5052688;28;20025;-67
2022/03/15 01:39:37;;;;;;;17.30;11.32;;;11.70;99.90;;;;;;5048240;28;20083;-67
2022/03/15 01:42:04;;;;;;;19.55;11.10;;;11.60;99.90;;;;;;5045479;28;20038;-67
2022/03/15 01:44:33;;;;;;;16.75;11.15;;;11.60;99.90;;;;;;5046531;28;20056;-67
2022/03/15 01:46:59;;;;;;;22.45;14.38;;;11.60;99.90;;;;;;5044400;28;20712;-67
2022/03/15 01:49:24;;;;;;;21.40;12.90;;;11.50;99.90;;;;;;5046058;28;20025;-67
2022/03/15 01:51:51;;;;;;;14.25;9.93;;;11.50;99.90;;;;;;5046390;28;20436;-67
2022/03/15 01:54:20;;;;;;;15.13;9.27;;;11.50;99.90;;;;;;5042573;28;20390;-67
2022/03/15 01:56:46;;;;;;;11.95;9.18;;;11.50;99.90;;;;;;5049036;28;20025;-67
2022/03/15 01:59:13;;;;;;;13.80;9.10;;;11.60;99.90;;;;;;5045204;28;20025;-67
2022/03/15 02:01:42;;;;;;;12.27;8.80;;;11.60;99.90;;;;;;5047655;28;20021;-67
2022/03/15 02:04:09;;;;;;;12.95;8.80;;;11.60;99.90;;;;;;5049316;28;20023;-67
2022/03/15 02:06:42;;;;;;;13.82;9.23;;;11.60;99.90;;;;;;5045598;28;20029;-68
2022/03/15 02:09:09;;;;;;;15.50;9.40;;;11.70;99.90;;;;;;5048106;28;20061;-68
2022/03/15 02:11:35;;;;;;;15.25;10.20;;;11.70;99.90;;;;;;5051869;28;20115;-67
2022/03/15 02:14:02;;;;;;;14.98;10.43;;;11.70;99.90;;;;;;5047425;28;20416;-67
2022/03/15 02:16:28;;;;;;;13.57;9.52;;;11.70;99.90;;;;;;5046648;28;20044;-67
2022/03/15 02:18:55;;;;;;;15.32;10.18;;;11.80;99.90;;;;;;5046640;28;20033;-68
2022/03/15 02:21:23;;;;;;;11.38;8.98;;;11.80;99.90;;;;;;5046988;28;20456;-68
2022/03/15 02:23:50;;;;;;;15.88;9.13;;;11.80;99.90;;;;;;5050350;28;20032;-67
2022/03/15 02:26:16;;;;;;;17.77;8.90;;;11.70;99.90;;;;;;5048497;28;20033;-67
2022/03/15 02:28:43;;;;;;;17.15;8.85;;;11.70;99.90;;;;;;5042596;28;20033;-67
2022/03/15 02:31:10;;;;;;;13.10;9.00;;;11.70;99.90;;;;;;5041205;28;20026;-67
2022/03/15 02:33:35;;;;;;;14.65;9.30;;;11.70;99.90;;;;;;5046059;28;20037;-67
2022/03/15 02:36:01;;;;;;;15.52;9.07;;;11.70;99.90;;;;;;5048197;28;20094;-67
2022/03/15 02:38:27;;;;;;;13.52;8.50;;;11.70;99.90;;;;;;5050369;28;20033;-67
2022/03/15 02:40:53;;;;;;;13.20;8.52;;;11.70;99.90;;;;;;5046940;28;20028;-67
2022/03/15 02:43:19;;;;;;;15.38;9.15;;;11.60;99.90;;;;;;5052714;28;20037;-67
2022/03/15 02:45:45;;;;;;;11.35;8.00;;;11.60;99.90;;;;;;5050057;28;20037;-67
2022/03/15 02:48:11;;;;;;;12.40;7.75;;;11.60;99.90;;;;;;5048677;28;20060;-67
2022/03/15 02:50:36;;;;;;;11.88;7.25;;;11.60;99.90;;;;;;5051893;28;20029;-67
2022/03/15 02:53:02;;;;;;;9.95;7.07;;;11.70;99.90;;;;;;5047364;28;20120;-67
2022/03/15 02:55:29;;;;;;;11.85;7.35;;;11.70;99.90;;;;;;5048072;28;20036;-67
2022/03/15 02:57:55;;;;;;;11.75;7.32;;;11.70;99.90;;;;;;5048603;28;20041;-67
2022/03/15 03:00:21;;;;;;;15.13;7.72;;;11.70;99.90;;;;;;5047842;28;20052;-67
2022/03/15 03:02:47;;;;;;;11.55;7.13;;;11.70;99.90;;;;;;5046173;28;20033;-67
2022/03/15 03:05:13;;;;;;;12.60;7.80;;;11.70;99.90;;;;;;5046913;28;20038;-67
2022/03/15 03:07:39;;;;;;;12.45;8.07;;;11.70;99.90;;;;;;5044788;28;20065;-67
2022/03/15 03:10:05;;;;;;;12.45;7.18;;;11.70;99.90;;;;;;5050681;28;20029;-67
2022/03/15 03:12:32;;;;;;;11.93;7.10;;;11.70;99.90;;;;;;5046911;28;20053;-68
2022/03/15 03:15:01;;;;;;;12.20;6.25;;;11.70;99.90;;;;;;5052358;28;20104;-67
2022/03/15 03:17:28;;;;;;;9.55;7.13;;;11.70;99.90;;;;;;5048695;28;20045;-68
2022/03/15 03:19:53;;;;;;;11.90;7.10;;;11.70;99.90;;;;;;5046296;28;20027;-67
2022/03/15 03:22:19;;;;;;;11.20;6.45;;;11.60;99.90;;;;;;5045140;28;20413;-67
2022/03/15 03:24:45;;;;;;;9.85;6.65;;;11.60;99.90;;;;;;5048584;28;20112;-67
2022/03/15 03:27:13;;;;;;;9.98;6.35;;;11.70;99.90;;;;;;5052346;28;20052;-68
2022/03/15 03:29:40;;;;;;;10.90;6.55;;;11.70;99.90;;;;;;5054760;28;20037;-67
2022/03/15 03:32:07;;;;;;;10.70;6.75;;;11.70;99.90;;;;;;5048644;28;20029;-68
2022/03/15 03:34:34;;;;;;;9.60;6.45;;;11.70;99.90;;;;;;5047902;28;20048;-68
2022/03/15 03:36:59;;;;;;;10.60;5.88;;;11.70;99.90;;;;;;5048209;28;20029;-68
2022/03/15 03:39:25;;;;;;;12.27;6.22;;;11.70;99.90;;;;;;5048818;28;20037;-68
2022/03/15 03:41:51;;;;;;;12.25;6.00;;;11.70;99.90;;;;;;5051290;28;20147;-68
2022/03/15 03:44:17;;;;;;;10.52;6.47;;;11.60;99.90;;;;;;5048121;28;20049;-68
2022/03/15 03:46:43;;;;;;;13.45;5.68;;;11.60;99.90;;;;;;5045904;28;20029;-68
2022/03/15 03:49:08;;;;;;;9.30;6.45;;;11.70;99.90;;;;;;5047228;28;20441;-68
2022/03/15 03:51:34;;;;;;;10.25;6.07;;;11.60;99.90;;;;;;5045889;28;20044;-68
2022/03/15 03:54:00;;;;;;;12.38;5.68;;;11.70;99.90;;;;;;5050021;28;20061;-68
2022/03/15 03:56:25;;;;;;;9.50;5.93;;;11.70;99.90;;;;;;5048996;28;20032;-68
2022/03/15 03:58:51;;;;;;;13.10;6.30;;;11.70;99.90;;;;;;5046919;28;20025;-68
2022/03/15 04:01:17;;;;;;;8.25;5.35;;;11.70;99.90;;;;;;5048961;28;20040;-68
2022/03/15 04:03:43;;;;;;;9.10;6.18;;;11.70;99.90;;;;;;5046205;28;20065;-68
2022/03/15 04:06:11;;;;;;;8.70;5.85;;;11.60;99.90;;;;;;5048984;28;20117;-68
2022/03/15 04:08:37;;;;;;;9.02;5.90;;;11.60;99.90;;;;;;5049928;28;20033;-68
2022/03/15 04:11:02;;;;;;;10.93;5.78;;;11.60;99.90;;;;;;5045896;28;20040;-68
2022/03/15 04:13:28;;;;;;;12.45;5.85;;;11.60;99.90;;;;;;5044807;28;20584;-68
2022/03/15 04:15:54;;;;;;;10.23;5.50;;;11.60;99.90;;;;;;5050579;28;20033;-68
2022/03/15 04:18:20;;;;;;;10.68;6.10;;;11.60;99.90;;;;;;5048681;28;20029;-68
2022/03/15 04:20:46;;;;;;;9.82;6.15;;;11.50;99.90;;;;;;5044245;28;20374;-68
2022/03/15 04:23:12;;;;;;;12.63;6.60;;;11.50;99.90;;;;;;5047833;28;20028;-68
2022/03/15 04:25:38;;;;;;;11.15;5.88;;;11.50;99.90;;;;;;5045473;28;20077;-68
2022/03/15 04:28:04;;;;;;;9.20;6.15;;;11.40;99.90;;;;;;5052447;28;20497;-68
2022/03/15 04:30:31;;;;;;;10.15;6.35;;;11.40;99.90;;;;;;5047245;28;20160;-67
2022/03/15 04:32:58;;;;;;;12.75;6.72;;;11.50;99.90;;;;;;5050905;28;20550;-68
2022/03/15 04:35:24;;;;;;;12.50;6.55;;;11.50;99.90;;;;;;5048336;28;20033;-67
2022/03/15 04:37:54;;;;;;;10.52;5.57;;;11.50;99.90;;;;;;5045045;28;20036;-67
2022/03/15 04:40:20;;;;;;;10.85;6.45;;;11.50;99.90;;;;;;5044449;28;20037;-67
2022/03/15 04:42:48;;;;;;;12.15;7.10;;;11.50;99.90;;;;;;5049652;28;20036;-68
2022/03/15 04:45:15;;;;;;;12.52;6.90;;;11.40;99.90;;;;;;5046702;28;20052;-67
2022/03/15 04:47:41;;;;;;;10.00;6.05;;;11.50;99.90;;;;;;5044838;28;20032;-68
2022/03/15 04:50:09;;;;;;;10.88;7.30;;;11.50;99.90;;;;;;5044927;28;20038;-68
2022/03/15 04:52:34;;;;;;;12.80;7.15;;;11.50;99.90;;;;;;5044465;28;20547;-67
2022/03/15 04:55:01;;;;;;;10.15;6.60;;;11.40;99.90;;;;;;5049671;28;20025;-68
2022/03/15 04:57:27;;;;;;;12.73;6.70;;;11.40;99.90;;;;;;5048610;28;20059;-67
2022/03/15 04:59:53;;;;;;;8.68;6.50;;;11.40;99.90;;;;;;5044407;28;20025;-67
2022/03/15 05:02:19;;;;;;;10.55;5.90;;;11.50;99.90;;;;;;5043899;28;20477;-67
2022/03/15 05:04:44;;;;;;;10.85;6.22;;;11.40;99.90;;;;;;5043529;28;20100;-67
2022/03/15 05:07:10;;;;;;;9.80;6.00;;;11.40;99.90;;;;;;5048611;28;20034;-68
2022/03/15 05:11:05;;;;;;;11.45;6.65;;;11.40;99.90;;;;;;5048785;28;20021;-67
2022/03/15 05:12:22;;;;;;;9.32;6.57;;;11.50;99.90;;;;;;5047285;28;20511;-67
2022/03/15 05:14:47;;;;;;;9.05;6.03;;;11.50;99.90;;;;;;5045099;28;20131;-66
2022/03/15 05:17:13;;;;;;;10.52;5.78;;;11.50;99.90;;;;;;5046850;28;20346;-67
2022/03/15 05:19:39;;;;;;;9.30;5.93;;;11.50;99.90;;;;;;5044395;28;20017;-67
2022/03/15 05:22:04;;;;;;;9.45;5.85;;;11.50;99.90;;;;;;5046089;28;20041;-67
2022/03/15 05:24:30;;;;;;;8.85;5.35;;;11.50;99.90;;;;;;5045509;28;20030;-67
2022/03/15 05:26:57;;;;;;;10.48;5.50;;;11.50;99.90;;;;;;5049685;28;20115;-67
2022/03/15 05:29:24;;;;;;;9.90;5.00;;;11.40;99.90;;;;;;5052643;28;20115;-68
2022/03/15 05:31:49;;;;;;;12.73;6.03;;;11.40;99.90;;;;;;5052160;28;20032;-68
2022/03/15 05:34:17;;;;;;;11.50;5.47;;;11.40;99.90;;;;;;5044069;28;20037;-68
2022/03/15 05:36:44;;;;;;;11.88;6.00;;;11.40;99.90;;;;;;5044125;28;20043;-68
2022/03/15 05:39:10;;;;;;;10.75;6.10;;;11.30;99.90;;;;;;5041870;28;20025;-68
2022/03/15 05:41:35;;;;;;;8.50;6.00;;;11.30;99.90;;;;;;5047634;28;20504;-68
2022/03/15 05:44:01;;;;;;;11.60;6.22;;;11.30;99.90;;;;;;5044459;28;20032;-68
2022/03/15 05:46:27;;;;;;;11.50;5.88;;;11.30;99.90;;;;;;5043149;28;20581;-68
2022/03/15 05:48:54;;;;;;;10.02;6.40;;;11.30;99.90;;;;;;5044088;28;20489;-68
2022/03/15 05:51:20;;;;;;;12.43;7.10;;;11.20;99.90;;;;;;5047424;28;20021;-68
2022/03/15 05:53:45;;;;;;;13.18;9.20;;;11.30;99.90;;;;;;5049122;28;20048;-68
2022/03/15 05:56:11;;;;;;;13.05;8.63;;;11.20;99.90;;;;;;5044431;28;20072;-68
2022/03/15 05:58:37;;;;;;;11.77;8.25;;;11.30;99.90;;;;;;5043261;28;20068;-68
2022/03/15 06:01:03;;;;;;;14.00;8.95;;;11.20;99.90;;;;;;5048193;28;20076;-68
2022/03/15 06:03:28;;;;;;;14.10;8.93;;;11.20;99.90;;;;;;5048630;28;20513;-69
2022/03/15 06:05:54;;;;;;;13.18;9.23;;;11.20;99.90;;;;;;5046172;28;20071;-69
2022/03/15 06:08:20;;;;;;;14.02;9.10;;;11.20;99.90;;;;;;5046763;28;20032;-70
2022/03/15 06:10:46;;;;;;;13.05;9.30;;;11.00;99.90;;;;;;5044601;28;20033;-70
2022/03/15 06:13:12;;;;;;;14.55;10.95;;;10.80;99.90;;;;;;5053644;28;20041;-70
2022/03/15 06:15:38;;;;;;;14.68;9.65;;;10.80;99.90;;;;;;5052147;28;20095;-70
2022/03/15 06:18:05;;;;;;;18.00;9.88;;;10.70;99.90;;;;;;5051136;28;20033;-69
2022/03/15 06:20:31;;;;;;;19.08;10.20;;;10.70;99.90;;;;;;5051012;28;20509;-70
2022/03/15 06:22:57;;;;;;;14.40;9.77;;;10.70;99.90;;;;;;5048990;28;20040;-70
2022/03/15 06:25:23;;;;;;;15.23;9.32;;;10.70;99.90;;;;;;5052238;28;20033;-69
2022/03/15 06:27:49;;;;;;;16.15;9.52;;;10.80;99.90;;;;;;5054150;28;20076;-69
2022/03/15 06:30:20;;;;;;;15.07;10.15;;;10.80;99.90;;;;;;5050935;28;20024;-69
2022/03/15 06:32:46;;;;;;;16.52;10.95;;;10.80;99.90;;;;;;5057634;28;20438;-69
2022/03/15 06:35:13;;;;;;;16.88;9.93;;;10.90;99.90;;;;;;5051057;28;20028;-71
2022/03/15 06:37:45;;;;;;;18.67;10.13;;;10.90;99.90;;;;;;5048735;28;20497;-70
2022/03/15 06:40:19;;;;;;;17.95;11.70;;;10.90;99.90;;;;;;5055101;28;20040;-70
2022/03/15 06:42:45;;;;;;;17.83;10.80;;;11.00;99.90;;;;;;5055021;28;20025;-69
2022/03/15 06:45:11;;;;;;;21.48;11.02;;;11.00;99.90;;;;;;5050869;28;20041;-69
2022/03/15 06:47:38;;;;;;;16.27;9.05;;;11.10;99.90;;;;;;5051562;28;20025;-69
2022/03/15 06:50:07;;;;;;;14.82;9.10;;;11.10;99.90;;;;;;5050046;28;20033;-69
2022/03/15 06:52:32;;;;;;;14.80;9.27;;;11.20;99.90;;;;;;5050453;28;20091;-70
2022/03/15 06:54:58;;;;;;;21.35;12.07;;;11.20;99.90;;;;;;5053730;28;20029;-68
2022/03/15 06:57:24;;;;;;;24.58;14.88;;;11.10;99.90;;;;;;5055352;28;20029;-68
2022/03/15 06:59:50;;;;;;;23.83;14.57;;;11.10;99.90;;;;;;5054158;28;20107;-67
2022/03/15 07:02:15;;;;;;;18.98;12.80;;;11.10;99.90;;;;;;5054328;28;21042;-68
2022/03/15 07:04:41;;;;;;;18.13;11.60;;;11.10;99.90;;;;;;5054223;28;20103;-67
2022/03/15 07:07:07;;;;;;;19.67;11.82;;;11.20;99.90;;;;;;5055539;28;20388;-68
2022/03/15 07:09:33;;;;;;;23.77;14.30;;;11.20;99.90;;;;;;5055654;28;20167;-67
2022/03/15 07:11:59;;;;;;;21.67;15.27;;;11.20;99.90;;;;;;5054839;28;20392;-67
2022/03/15 07:14:25;;;;;;;22.05;15.55;;;11.20;99.90;;;;;;5054248;28;20556;-67
2022/03/15 07:16:51;;;;;;;20.02;14.07;;;11.10;99.90;;;;;;5054701;28;20151;-68
2022/03/15 07:19:17;;;;;;;21.50;12.63;;;11.10;99.90;;;;;;5054909;28;20033;-67
2022/03/15 07:21:42;;;;;;;24.35;13.80;;;11.10;99.90;;;;;;5055264;28;20083;-67
2022/03/15 07:24:08;;;;;;;20.27;12.38;;;11.20;99.90;;;;;;5055141;28;20037;-67
2022/03/15 07:26:34;;;;;;;19.50;11.98;;;11.30;99.90;;;;;;5052584;28;20102;-68
2022/03/15 07:29:01;;;;;;;17.15;10.90;;;11.30;99.90;;;;;;5045379;28;20546;-67
2022/03/15 07:31:27;;;;;;;15.43;10.10;;;11.40;99.90;;;;;;5055095;28;20546;-68
2022/03/15 07:33:53;;;;;;;19.08;10.60;;;11.50;99.90;;;;;;5054709;28;20037;-68
2022/03/15 07:36:19;;;;;;;15.60;10.73;;;11.50;99.90;;;;;;5049964;28;20481;-67
2022/03/15 07:38:45;;;;;;;17.17;12.10;;;11.60;99.90;;;;;;5049488;28;20087;-67
2022/03/15 07:41:11;;;;;;;16.60;12.88;;;11.60;99.90;;;;;;5050372;28;20051;-67
2022/03/15 07:43:37;;;;;;;17.33;12.00;;;11.60;99.90;;;;;;5049523;28;20417;-67
2022/03/15 07:46:03;;;;;;;18.13;10.57;;;11.70;99.90;;;;;;5049753;28;20044;-68
2022/03/15 07:48:29;;;;;;;14.38;9.60;;;11.70;99.90;;;;;;5049300;28;20388;-67
2022/03/15 07:50:55;;;;;;;12.80;8.80;;;11.70;99.90;;;;;;5047817;28;20123;-66
2022/03/15 07:53:21;;;;;;;15.10;8.55;;;11.80;99.90;;;;;;5049975;28;20036;-69
2022/03/15 07:55:46;;;;;;;12.05;8.30;;;11.80;99.90;;;;;;5050152;28;20099;-67
2022/03/15 07:58:12;;;;;;;14.43;9.32;;;11.80;99.90;;;;;;5050142;28;20455;-66
2022/03/15 08:00:38;;;;;;;15.30;11.20;;;11.80;99.90;;;;;;5049618;28;20040;-66
2022/03/15 08:03:04;;;;;;;18.45;11.95;;;11.70;99.90;;;;;;5049673;28;20108;-66
2022/03/15 08:05:30;;;;;;;18.85;12.43;;;11.70;99.90;;;;;;5050323;28;20370;-66
2022/03/15 08:07:56;;;;;;;16.05;11.60;;;11.70;99.90;;;;;;5050486;28;20040;-66
2022/03/15 08:10:22;;;;;;;19.48;13.25;;;11.70;99.90;;;;;;5049509;28;20497;-66
2022/03/15 08:12:49;;;;;;;15.80;12.05;;;11.70;99.90;;;;;;5049974;28;20040;-67
2022/03/15 08:15:15;;;;;;;18.42;12.43;;;11.70;99.90;;;;;;5049068;28;20048;-67
2022/03/15 08:17:41;;;;;;;19.42;13.07;;;11.70;99.90;;;;;;5050834;28;20037;-67
2022/03/15 08:20:13;;;;;;;21.10;13.52;;;11.70;99.90;;;;;;5049991;28;20029;-67
2022/03/15 08:22:39;;;;;;;29.13;14.38;;;11.70;99.90;;;;;;5045298;28;20693;-67
2022/03/15 08:25:05;;;;;;;21.83;14.38;;;11.80;99.90;;;;;;5049915;28;20473;-67
2022/03/15 08:27:32;;;;;;;24.33;13.70;;;11.90;99.90;;;;;;5050052;28;20094;-67
2022/03/15 08:29:58;;;;;;;20.67;13.60;;;11.90;99.90;;;;;;5049997;28;20731;-68
2022/03/15 08:32:23;;;;;;;25.20;14.35;;;11.90;99.90;;;;;;5050699;28;20032;-68
2022/03/15 08:34:49;;;;;;;24.15;14.55;;;12.00;99.90;;;;;;5048199;28;20120;-68
2022/03/15 08:37:15;;;;;;;23.45;14.43;;;12.00;99.90;;;;;;5050974;28;20373;-69
2022/03/15 08:39:41;;;;;;;22.90;14.45;;;12.10;99.90;;;;;;5051831;28;20033;-68
2022/03/15 08:42:08;;;;;;;21.30;14.75;;;12.10;99.90;;;;;;5053645;28;20090;-68
2022/03/15 08:44:34;;;;;;;24.40;16.45;;;12.10;99.90;;;;;;5054367;28;20028;-68
2022/03/15 08:47:00;;;;;;;30.70;18.45;;;12.20;99.90;;;;;;5053859;28;20484;-69
2022/03/15 08:49:25;;;;;;;33.92;20.85;;;12.20;99.90;;;;;;5045209;28;20571;-67
2022/03/15 08:51:51;;;;;;;33.10;22.13;;;12.20;99.90;;;;;;5047997;28;20120;-67
2022/03/15 08:54:18;;;;;;;39.55;22.52;;;12.20;99.90;;;;;;5045162;28;20082;-67
2022/03/15 08:56:44;;;;;;;38.38;25.88;;;12.30;99.90;;;;;;5045166;28;20109;-67
2022/03/15 08:59:15;;;;;;;42.38;26.27;;;12.30;99.90;;;;;;5045412;28;20058;-67
2022/03/15 09:01:41;;;;;;;37.58;25.17;;;12.30;99.90;;;;;;5049310;28;20094;-67
2022/03/15 09:04:07;;;;;;;38.78;24.17;;;12.40;99.90;;;;;;5051175;28;20032;-67
2022/03/15 09:06:33;;;;;;;35.30;23.30;;;12.40;99.90;;;;;;5048898;28;20033;-67
2022/03/15 09:09:02;;;;;;;36.22;22.33;;;12.40;99.90;;;;;;5051111;28;20033;-67
2022/03/15 09:11:31;;;;;;;39.28;23.70;;;12.40;99.90;;;;;;5053230;28;20025;-67
2022/03/15 09:13:58;;;;;;;39.70;24.92;;;12.50;99.90;;;;;;5049176;28;20429;-67
2022/03/15 09:16:23;;;;;;;35.30;21.98;;;12.50;99.90;;;;;;5048405;28;20033;-67
2022/03/15 09:18:50;;;;;;;33.95;22.55;;;12.60;99.90;;;;;;5050570;28;20028;-67
2022/03/15 09:21:16;;;;;;;31.65;22.45;;;12.60;99.90;;;;;;5050476;28;20033;-68
2022/03/15 09:23:42;;;;;;;40.65;23.35;;;12.60;99.90;;;;;;5053386;28;20025;-67
2022/03/15 09:26:07;;;;;;;36.60;24.42;;;12.60;99.90;;;;;;5048809;28;20112;-67
2022/03/15 09:28:33;;;;;;;35.90;23.75;;;12.60;99.90;;;;;;5048134;28;20393;-67
2022/03/15 09:31:01;;;;;;;37.63;23.27;;;12.60;99.90;;;;;;5049325;28;20029;-66
2022/03/15 09:33:28;;;;;;;34.63;21.05;;;12.70;99.90;;;;;;5048339;28;20081;-66
2022/03/15 09:35:53;;;;;;;34.40;22.63;;;12.70;99.90;;;;;;5051533;28;20025;-66
2022/03/15 09:38:21;;;;;;;34.30;21.48;;;12.80;99.90;;;;;;5048009;28;20033;-66
2022/03/15 09:40:51;;;;;;;32.83;21.20;;;12.80;99.90;;;;;;5047950;28;20497;-67
2022/03/15 09:43:22;;;;;;;34.63;20.90;;;12.80;99.90;;;;;;5049129;28;20041;-66
2022/03/15 09:45:50;;;;;;;35.92;20.80;;;12.90;99.90;;;;;;5045755;28;20558;-66
2022/03/15 09:48:19;;;;;;;30.88;20.08;;;12.90;99.90;;;;;;5048655;28;20041;-66
2022/03/15 09:50:48;;;;;;;29.85;18.65;;;12.90;99.90;;;;;;5050138;28;20036;-66
2022/03/15 09:53:15;;;;;;;37.17;20.05;;;12.90;99.90;;;;;;5050148;28;20058;-66
2022/03/15 09:55:45;;;;;;;32.45;21.67;;;12.90;99.90;;;;;;5048504;28;20030;-66
2022/03/15 09:58:19;;;;;;;31.33;20.92;;;12.90;99.90;;;;;;5051841;28;20032;-66
2022/03/15 10:00:50;;;;;;;33.92;19.35;;;12.90;99.90;;;;;;5048897;28;20029;-66
2022/03/15 10:03:17;;;;;;;21.52;15.63;;;12.90;99.90;;;;;;5049686;28;20030;-66
2022/03/15 10:05:44;;;;;;;24.48;15.18;;;13.00;99.90;;;;;;5053613;28;20021;-67
2022/03/15 10:08:12;;;;;;;26.00;15.43;;;13.00;99.90;;;;;;5056527;28;20032;-66
2022/03/15 10:10:38;;;;;;;22.92;14.73;;;13.00;99.90;;;;;;5052938;28;20029;-67
2022/03/15 10:13:03;;;;;;;20.30;12.90;;;13.00;99.90;;;;;;5051114;28;20481;-67
2022/03/15 10:15:29;;;;;;;22.63;13.13;;;13.20;99.90;;;;;;5048233;28;20099;-66
2022/03/15 10:18:04;;;;;;;18.17;13.18;;;13.10;99.90;;;;;;5051536;28;20047;-66
2022/03/15 10:20:38;;;;;;;21.52;11.98;;;13.10;99.90;;;;;;5048334;28;20435;-67
2022/03/15 10:23:04;;;;;;;19.30;12.35;;;13.20;99.90;;;;;;5051458;28;20093;-66
2022/03/15 10:25:32;;;;;;;18.25;11.25;;;13.20;99.90;;;;;;5050791;28;20025;-67
2022/03/15 10:28:00;;;;;;;20.23;11.05;;;13.20;99.90;;;;;;5049522;28;20059;-66
2022/03/15 10:30:27;;;;;;;22.88;10.77;;;13.30;99.90;;;;;;5052840;28;20024;-67
2022/03/15 10:32:54;;;;;;;18.10;10.45;;;13.30;99.90;;;;;;5055067;28;20102;-67
2022/03/15 10:35:22;;;;;;;16.63;10.38;;;13.30;99.90;;;;;;5052277;28;20025;-67
2022/03/15 10:37:49;;;;;;;15.30;9.82;;;13.40;99.90;;;;;;5049648;28;20028;-67
2022/03/15 10:40:16;;;;;;;15.95;10.68;;;13.40;99.90;;;;;;5050379;28;20032;-67
2022/03/15 10:42:44;;;;;;;18.23;9.85;;;13.50;99.90;;;;;;5050434;28;20092;-67
2022/03/15 10:45:23;;;;;;;16.45;10.07;;;13.60;99.90;;;;;;5052898;28;20033;-67
2022/03/15 10:47:48;;;;;;;19.63;8.68;;;13.60;99.90;;;;;;5053847;28;20456;-67
2022/03/15 10:50:16;;;;;;;16.98;9.05;;;13.60;99.90;;;;;;5050543;28;20025;-67
2022/03/15 10:52:44;;;;;;;15.35;8.50;;;13.60;99.90;;;;;;5048672;28;20457;-67
2022/03/15 10:55:24;;;;;;;15.20;7.95;;;13.70;99.90;;;;;;5049868;28;20037;-67
2022/03/15 10:58:05;;;;;;;14.68;7.32;;;13.70;99.90;;;;;;5049319;28;20055;-67
2022/03/15 11:00:37;;;;;;;15.07;6.63;;;13.90;99.90;;;;;;5047855;28;20067;-67
2022/03/15 11:03:10;;;;;;;13.32;6.70;;;13.90;99.90;;;;;;5053096;28;20033;-67
2022/03/15 11:05:41;;;;;;;20.83;6.77;;;13.90;99.90;;;;;;5051511;28;20594;-67
2022/03/15 11:08:13;;;;;;;15.93;6.68;;;13.90;99.90;;;;;;5048896;28;20498;-67
2022/03/15 11:10:40;;;;;;;13.20;6.85;;;14.00;99.90;;;;;;5051742;28;20033;-67
2022/03/15 11:13:09;;;;;;;13.95;6.80;;;14.00;99.90;;;;;;5048269;28;20496;-67
2022/03/15 11:15:50;;;;;;;12.82;6.50;;;14.00;99.90;;;;;;5047353;28;20052;-67
2022/03/15 11:18:19;;;;;;;16.48;7.45;;;14.00;99.90;;;;;;5049747;28;20075;-67
2022/03/15 11:20:47;;;;;;;16.30;7.60;;;14.10;99.90;;;;;;5052430;28;20074;-67
2022/03/15 11:23:14;;;;;;;21.23;7.38;;;14.10;99.90;;;;;;5046878;28;20052;-67
2022/03/15 11:25:46;;;;;;;18.83;8.25;;;14.20;99.90;;;;;;5047304;28;20474;-67
2022/03/15 11:28:23;;;;;;;17.88;7.32;;;14.20;99.90;;;;;;5047109;28;20056;-67
2022/03/15 11:30:51;;;;;;;21.30;9.02;;;14.20;99.90;;;;;;5047643;28;20497;-67
2022/03/15 11:33:17;;;;;;;21.98;8.68;;;14.30;99.90;;;;;;5054241;28;20037;-67
2022/03/15 11:35:43;;;;;;;17.00;7.75;;;14.20;99.90;;;;;;5046837;28;20048;-67
2022/03/15 11:38:12;;;;;;;19.70;8.50;;;14.30;99.90;;;;;;5048913;28;20373;-67
2022/03/15 11:40:39;;;;;;;21.67;8.75;;;14.40;99.90;;;;;;5043640;28;20033;-67
2022/03/15 11:43:50;;;;;;;19.42;8.43;;;14.40;99.90;;;;;;5052312;28;20029;-67
2022/03/15 11:46:28;;;;;;;18.25;8.65;;;14.30;99.90;;;;;;5050282;28;20128;-67
2022/03/15 11:49:19;;;;;;;21.60;9.38;;;14.40;99.90;;;;;;5052840;28;20044;-67
2022/03/15 11:52:18;;;;;;;21.25;8.68;;;14.40;99.90;;;;;;5043179;28;20112;-68
2022/03/15 11:54:50;;;;;;;22.98;8.48;;;14.50;99.90;;;;;;5051421;28;20033;-67
2022/03/15 11:57:49;;;;;;;18.40;9.40;;;14.50;99.90;;;;;;5047786;28;20108;-68
2022/03/15 12:00:32;;;;;;;16.10;9.43;;;14.40;99.90;;;;;;5039611;28;20037;-68
2022/03/15 12:03:02;;;;;;;18.08;8.73;;;14.50;99.90;;;;;;5044039;28;20020;-68
2022/03/15 12:05:28;;;;;;;23.15;9.13;;;14.50;99.90;;;;;;5049857;28;20037;-68
2022/03/15 12:08:15;;;;;;;18.35;8.65;;;14.60;99.90;;;;;;5046215;28;20079;-68
2022/03/15 12:10:50;;;;;;;20.65;9.68;;;14.60;99.90;;;;;;5042146;28;20034;-69
2022/03/15 12:13:16;;;;;;;23.30;9.30;;;14.60;99.90;;;;;;5047867;28;20559;-68
2022/03/15 12:15:45;;;;;;;17.52;9.30;;;14.70;99.90;;;;;;5046877;28;20452;-68
2022/03/15 12:20:59;;;;;;;25.40;9.48;;;14.60;99.90;;;;;;5051711;28;20033;-68
2022/03/15 12:23:27;;;;;;;21.02;9.32;;;14.80;99.90;;;;;;5048971;28;20064;-67
2022/03/15 12:25:57;;;;;;;16.90;7.97;;;14.80;99.90;;;;;;5045485;28;20062;-67
2022/03/15 12:28:30;;;;;;;19.00;8.50;;;14.90;99.90;;;;;;5044136;28;20407;-68
2022/03/15 12:31:07;;;;;;;15.70;8.35;;;15.00;99.90;;;;;;5046482;28;20025;-67
2022/03/15 12:33:34;;;;;;;19.42;8.55;;;15.10;99.90;;;;;;5047096;28;20033;-67
2022/03/15 12:36:05;;;;;;;13.45;6.95;;;15.10;99.90;;;;;;5052355;28;20025;-67
2022/03/15 12:38:40;;;;;;;19.70;8.02;;;15.10;99.90;;;;;;5050762;28;20025;-66